TAP23 SBSP-SBRJ
Flight info
| Callsign | TAP23 |
|---|---|
| Flight time | 0h 38m |
| Altitude | 25000 |
| Route | BAIAN3A NIBRU UZ171 KEVUN ASALU1A |
| Aircraft | A20N/M-L/S |
Departure
| Time | 2026-05-06 22:30 |
|---|---|
| Airport | Congonhas–Deputado Freitas Nobre Airport (SBSP) |
Arrival
| Time | 2026-05-06 23:09 |
|---|---|
| Airport | Santos Dumont Airport (SBRJ) |
| Time | Latitude | Longitude | Altitude | Speed | Heading |
|---|---|---|---|---|---|
| 2026-05-06 22:21 | -23.62489 | -46.65991 | 2620 ft | 0 kts | 239° |
| 2026-05-06 22:25 | -23.62482 | -46.65974 | 2619 ft | 5 kts | 254° |
| 2026-05-06 22:25 | -23.62481 | -46.65936 | 2619 ft | 5 kts | 286° |
| 2026-05-06 22:26 | -23.62488 | -46.65917 | 2619 ft | 0 kts | 326° |
| 2026-05-06 22:27 | -23.62483 | -46.65921 | 2619 ft | 3 kts | 326° |
| 2026-05-06 22:27 | -23.62418 | -46.65934 | 2617 ft | 17 kts | 349° |
| 2026-05-06 22:28 | -23.62284 | -46.66013 | 2614 ft | 22 kts | 330° |
| 2026-05-06 22:28 | -23.62157 | -46.66096 | 2609 ft | 12 kts | 327° |
| 2026-05-06 22:28 | -23.62130 | -46.66115 | 2608 ft | 4 kts | 327° |
| 2026-05-06 22:28 | -23.62085 | -46.66132 | 2606 ft | 11 kts | 354° |
| 2026-05-06 22:29 | -23.62044 | -46.66080 | 2605 ft | 6 kts | 110° |
| 2026-05-06 22:29 | -23.62063 | -46.66064 | 2606 ft | 7 kts | 142° |
| 2026-05-06 22:29 | -23.62094 | -46.66040 | 2607 ft | 0 kts | 146° |
| 2026-05-06 22:29 | -23.62100 | -46.66036 | 2607 ft | 0 kts | 146° |
| 2026-05-06 22:30 | -23.62160 | -46.65993 | 2610 ft | 44 kts | 148° |
| 2026-05-06 22:30 | -23.62669 | -46.65642 | 2624 ft | 125 kts | 147° |
| 2026-05-06 22:30 | -23.63540 | -46.65029 | 2960 ft | 161 kts | 146° |
| 2026-05-06 22:30 | -23.64533 | -46.64302 | 3609 ft | 183 kts | 144° |
| 2026-05-06 22:31 | -23.65662 | -46.63508 | 4277 ft | 202 kts | 146° |
| 2026-05-06 22:31 | -23.66912 | -46.62675 | 4802 ft | 222 kts | 146° |
| 2026-05-06 22:31 | -23.68283 | -46.61721 | 5291 ft | 246 kts | 145° |
| 2026-05-06 22:31 | -23.69773 | -46.60632 | 5829 ft | 268 kts | 139° |
| 2026-05-06 22:32 | -23.70904 | -46.59033 | 6561 ft | 275 kts | 112° |
| 2026-05-06 22:32 | -23.71340 | -46.56981 | 7423 ft | 279 kts | 96° |
| 2026-05-06 22:32 | -23.71563 | -46.54869 | 8371 ft | 282 kts | 94° |
| 2026-05-06 22:32 | -23.71761 | -46.52720 | 9289 ft | 287 kts | 94° |
| 2026-05-06 22:33 | -23.71961 | -46.50536 | 10188 ft | 291 kts | 92° |
| 2026-05-06 22:33 | -23.71953 | -46.48289 | 10803 ft | 305 kts | 83° |
| 2026-05-06 22:33 | -23.71629 | -46.45914 | 11119 ft | 328 kts | 79° |
| 2026-05-06 22:33 | -23.71252 | -46.43389 | 11598 ft | 342 kts | 80° |
| 2026-05-06 22:34 | -23.70882 | -46.40850 | 12404 ft | 345 kts | 81° |
| 2026-05-06 22:34 | -23.70508 | -46.38247 | 13198 ft | 349 kts | 81° |
| 2026-05-06 22:34 | -23.70133 | -46.35615 | 13978 ft | 352 kts | 81° |
| 2026-05-06 22:34 | -23.69755 | -46.32958 | 14626 ft | 356 kts | 82° |
| 2026-05-06 22:35 | -23.69373 | -46.30271 | 15278 ft | 361 kts | 82° |
| 2026-05-06 22:35 | -23.68984 | -46.27551 | 15934 ft | 365 kts | 82° |
| 2026-05-06 22:35 | -23.68591 | -46.24794 | 16559 ft | 370 kts | 82° |
| 2026-05-06 22:35 | -23.68192 | -46.22006 | 17202 ft | 374 kts | 82° |
| 2026-05-06 22:36 | -23.67787 | -46.19184 | 17825 ft | 378 kts | 82° |
| 2026-05-06 22:36 | -23.67378 | -46.16331 | 18450 ft | 383 kts | 83° |
| 2026-05-06 22:36 | -23.66963 | -46.13449 | 18976 ft | 387 kts | 83° |
| 2026-05-06 22:36 | -23.66544 | -46.10531 | 19512 ft | 391 kts | 83° |
| 2026-05-06 22:37 | -23.66121 | -46.07580 | 20054 ft | 396 kts | 83° |
| 2026-05-06 22:37 | -23.65699 | -46.04636 | 20578 ft | 400 kts | 83° |
| 2026-05-06 22:37 | -23.65267 | -46.01621 | 21123 ft | 404 kts | 83° |
| 2026-05-06 22:37 | -23.64828 | -45.98575 | 21649 ft | 409 kts | 83° |
| 2026-05-06 22:38 | -23.64384 | -45.95491 | 22196 ft | 412 kts | 83° |
| 2026-05-06 22:38 | -23.63936 | -45.92389 | 22750 ft | 416 kts | 83° |
| 2026-05-06 22:38 | -23.63482 | -45.89244 | 23269 ft | 421 kts | 83° |
| 2026-05-06 22:38 | -23.63023 | -45.86067 | 23788 ft | 425 kts | 83° |
| 2026-05-06 22:39 | -23.62564 | -45.82904 | 24230 ft | 429 kts | 83° |
| 2026-05-06 22:39 | -23.62089 | -45.79633 | 24681 ft | 433 kts | 84° |
| 2026-05-06 22:39 | -23.61615 | -45.76376 | 25034 ft | 437 kts | 84° |
| 2026-05-06 22:39 | -23.61145 | -45.73145 | 25147 ft | 437 kts | 84° |
| 2026-05-06 22:40 | -23.60666 | -45.69862 | 25169 ft | 437 kts | 84° |
| 2026-05-06 22:40 | -23.60185 | -45.66569 | 25166 ft | 437 kts | 84° |
| 2026-05-06 22:40 | -23.59705 | -45.63289 | 25165 ft | 437 kts | 84° |
| 2026-05-06 22:40 | -23.59226 | -45.60015 | 25169 ft | 437 kts | 84° |
| 2026-05-06 22:41 | -23.58272 | -45.53513 | 25172 ft | 437 kts | 84° |
| 2026-05-06 22:41 | -23.57789 | -45.50232 | 25174 ft | 437 kts | 84° |
| 2026-05-06 22:41 | -23.57296 | -45.46958 | 25172 ft | 438 kts | 82° |
| 2026-05-06 22:42 | -23.56624 | -45.43710 | 25175 ft | 438 kts | 79° |
| 2026-05-06 22:42 | -23.55936 | -45.40474 | 25175 ft | 439 kts | 80° |
| 2026-05-06 22:42 | -23.55251 | -45.37231 | 25177 ft | 438 kts | 79° |
| 2026-05-06 22:42 | -23.54577 | -45.34037 | 25176 ft | 438 kts | 79° |
| 2026-05-06 22:43 | -23.53893 | -45.30807 | 25180 ft | 437 kts | 79° |
| 2026-05-06 22:43 | -23.53209 | -45.27573 | 25179 ft | 439 kts | 79° |
| 2026-05-06 22:43 | -23.52523 | -45.24338 | 25180 ft | 438 kts | 79° |
| 2026-05-06 22:43 | -23.51834 | -45.21099 | 25179 ft | 438 kts | 79° |
| 2026-05-06 22:44 | -23.51146 | -45.17864 | 25174 ft | 438 kts | 79° |
| 2026-05-06 22:44 | -23.50458 | -45.14633 | 25170 ft | 438 kts | 79° |
| 2026-05-06 22:44 | -23.49768 | -45.11399 | 25170 ft | 439 kts | 79° |
| 2026-05-06 22:44 | -23.49077 | -45.08162 | 25170 ft | 438 kts | 79° |
| 2026-05-06 22:45 | -23.48385 | -45.04922 | 25167 ft | 438 kts | 79° |
| 2026-05-06 22:45 | -23.47693 | -45.01690 | 25167 ft | 438 kts | 79° |
| 2026-05-06 22:45 | -23.47007 | -44.98494 | 25167 ft | 438 kts | 79° |
| 2026-05-06 22:45 | -23.46274 | -44.95271 | 25173 ft | 439 kts | 76° |
| 2026-05-06 22:46 | -23.45254 | -44.92129 | 25173 ft | 440 kts | 71° |
| 2026-05-06 22:46 | -23.44171 | -44.89012 | 25174 ft | 440 kts | 71° |
| 2026-05-06 22:46 | -23.43092 | -44.85887 | 25173 ft | 440 kts | 72° |
| 2026-05-06 22:46 | -23.42015 | -44.82764 | 25166 ft | 440 kts | 72° |
| 2026-05-06 22:47 | -23.40936 | -44.79633 | 25176 ft | 440 kts | 71° |
| 2026-05-06 22:47 | -23.39859 | -44.76513 | 25168 ft | 440 kts | 71° |
| 2026-05-06 22:47 | -23.38798 | -44.73442 | 25086 ft | 437 kts | 71° |
| 2026-05-06 22:47 | -23.37731 | -44.70357 | 24739 ft | 434 kts | 71° |
| 2026-05-06 22:48 | -23.36669 | -44.67291 | 24282 ft | 430 kts | 71° |
| 2026-05-06 22:48 | -23.35618 | -44.64255 | 23777 ft | 426 kts | 71° |
| 2026-05-06 22:48 | -23.34575 | -44.61246 | 23180 ft | 422 kts | 71° |
| 2026-05-06 22:48 | -23.33542 | -44.58265 | 22588 ft | 417 kts | 71° |
| 2026-05-06 22:49 | -23.32533 | -44.55361 | 21993 ft | 413 kts | 71° |
| 2026-05-06 22:49 | -23.31522 | -44.52453 | 21424 ft | 409 kts | 71° |
| 2026-05-06 22:49 | -23.30518 | -44.49565 | 20857 ft | 405 kts | 71° |
| 2026-05-06 22:49 | -23.29528 | -44.46719 | 20304 ft | 401 kts | 71° |
| 2026-05-06 22:50 | -23.28545 | -44.43896 | 19746 ft | 397 kts | 71° |
| 2026-05-06 22:50 | -23.27572 | -44.41102 | 19206 ft | 393 kts | 71° |
| 2026-05-06 22:50 | -23.26607 | -44.38334 | 18675 ft | 390 kts | 71° |
| 2026-05-06 22:50 | -23.25650 | -44.35591 | 18117 ft | 386 kts | 71° |
| 2026-05-06 22:51 | -23.24711 | -44.32899 | 17552 ft | 382 kts | 71° |
| 2026-05-06 22:51 | -23.23773 | -44.30211 | 17000 ft | 378 kts | 71° |
| 2026-05-06 22:51 | -23.22845 | -44.27553 | 16475 ft | 374 kts | 70° |
| 2026-05-06 22:51 | -23.21924 | -44.24915 | 15928 ft | 371 kts | 70° |
| 2026-05-06 22:52 | -23.21011 | -44.22305 | 15401 ft | 367 kts | 70° |
| 2026-05-06 22:52 | -23.20104 | -44.19715 | 14883 ft | 364 kts | 70° |
| 2026-05-06 22:52 | -23.19209 | -44.17158 | 14414 ft | 360 kts | 70° |
| 2026-05-06 22:52 | -23.18322 | -44.14625 | 13908 ft | 357 kts | 69° |
| 2026-05-06 22:53 | -23.17441 | -44.12110 | 13353 ft | 354 kts | 69° |
| 2026-05-06 22:53 | -23.16569 | -44.09623 | 12863 ft | 348 kts | 69° |
| 2026-05-06 22:53 | -23.15717 | -44.07196 | 12278 ft | 347 kts | 69° |
| 2026-05-06 22:53 | -23.14861 | -44.04759 | 11803 ft | 343 kts | 69° |
| 2026-05-06 22:54 | -23.14017 | -44.02359 | 11318 ft | 339 kts | 69° |
| 2026-05-06 22:54 | -23.13173 | -43.99961 | 10741 ft | 339 kts | 69° |
| 2026-05-06 22:54 | -23.12345 | -43.97609 | 10527 ft | 326 kts | 69° |
| 2026-05-06 22:54 | -23.11551 | -43.95355 | 10368 ft | 313 kts | 69° |
| 2026-05-06 22:55 | -23.10789 | -43.93194 | 10264 ft | 299 kts | 69° |
| 2026-05-06 22:55 | -23.10060 | -43.91125 | 10062 ft | 290 kts | 69° |
| 2026-05-06 22:55 | -23.09339 | -43.89083 | 9654 ft | 288 kts | 69° |
| 2026-05-06 22:55 | -23.08625 | -43.87059 | 9252 ft | 286 kts | 69° |
| 2026-05-06 22:56 | -23.07914 | -43.85046 | 8842 ft | 285 kts | 69° |
| 2026-05-06 22:56 | -23.07207 | -43.83044 | 8442 ft | 283 kts | 69° |
| 2026-05-06 22:56 | -23.06505 | -43.81058 | 8098 ft | 280 kts | 69° |
| 2026-05-06 22:56 | -23.05815 | -43.79105 | 7754 ft | 276 kts | 69° |
| 2026-05-06 22:57 | -23.05128 | -43.77167 | 7352 ft | 275 kts | 69° |
| 2026-05-06 22:57 | -23.04440 | -43.75225 | 6917 ft | 276 kts | 69° |
| 2026-05-06 22:57 | -23.03756 | -43.73292 | 6613 ft | 272 kts | 69° |
| 2026-05-06 22:57 | -23.03082 | -43.71391 | 6258 ft | 269 kts | 69° |
| 2026-05-06 22:58 | -23.02418 | -43.69517 | 6077 ft | 263 kts | 69° |
| 2026-05-06 22:58 | -23.01777 | -43.67709 | 6023 ft | 250 kts | 69° |
| 2026-05-06 22:58 | -23.01181 | -43.66028 | 6023 ft | 233 kts | 69° |
| 2026-05-06 22:58 | -23.00616 | -43.64436 | 6022 ft | 215 kts | 69° |
| 2026-05-06 22:59 | -23.00077 | -43.62914 | 6032 ft | 227 kts | 69° |
| 2026-05-06 22:59 | -22.99428 | -43.61370 | 6027 ft | 222 kts | 64° |
| 2026-05-06 22:59 | -22.98759 | -43.59865 | 6028 ft | 222 kts | 64° |
| 2026-05-06 22:59 | -22.98088 | -43.58339 | 6028 ft | 224 kts | 64° |
| 2026-05-06 23:00 | -22.97415 | -43.56807 | 6029 ft | 223 kts | 64° |
| 2026-05-06 23:00 | -22.96753 | -43.55298 | 6047 ft | 220 kts | 64° |
| 2026-05-06 23:00 | -22.96090 | -43.53792 | 6031 ft | 223 kts | 64° |
| 2026-05-06 23:00 | -22.95423 | -43.52277 | 6039 ft | 222 kts | 64° |
| 2026-05-06 23:01 | -22.94750 | -43.50748 | 6018 ft | 224 kts | 64° |
| 2026-05-06 23:01 | -22.94092 | -43.49223 | 5969 ft | 221 kts | 65° |
| 2026-05-06 23:01 | -22.93463 | -43.47729 | 5719 ft | 220 kts | 65° |
| 2026-05-06 23:01 | -22.92829 | -43.46217 | 5388 ft | 220 kts | 65° |
| 2026-05-06 23:02 | -22.92197 | -43.44709 | 5088 ft | 220 kts | 65° |
| 2026-05-06 23:02 | -22.91562 | -43.43206 | 4827 ft | 218 kts | 65° |
| 2026-05-06 23:02 | -22.90936 | -43.41727 | 4571 ft | 214 kts | 65° |
| 2026-05-06 23:02 | -22.90311 | -43.40249 | 4203 ft | 215 kts | 65° |
| 2026-05-06 23:03 | -22.89695 | -43.38799 | 3969 ft | 209 kts | 65° |
| 2026-05-06 23:03 | -22.89095 | -43.37391 | 3791 ft | 200 kts | 66° |
| 2026-05-06 23:03 | -22.88548 | -43.36044 | 3617 ft | 191 kts | 71° |
| 2026-05-06 23:03 | -22.88294 | -43.34648 | 3440 ft | 188 kts | 85° |
| 2026-05-06 23:04 | -22.88334 | -43.33216 | 3196 ft | 190 kts | 91° |
| 2026-05-06 23:04 | -22.88394 | -43.31812 | 3012 ft | 185 kts | 91° |
| 2026-05-06 23:04 | -22.88443 | -43.30415 | 2807 ft | 180 kts | 91° |
| 2026-05-06 23:04 | -22.88486 | -43.29105 | 2724 ft | 166 kts | 90° |
| 2026-05-06 23:05 | -22.88526 | -43.27922 | 2712 ft | 148 kts | 90° |
| 2026-05-06 23:05 | -22.88565 | -43.26805 | 2735 ft | 152 kts | 93° |
| 2026-05-06 23:05 | -22.88812 | -43.25701 | 2665 ft | 151 kts | 111° |
| 2026-05-06 23:05 | -22.89219 | -43.24664 | 2506 ft | 148 kts | 110° |
| 2026-05-06 23:06 | -22.89610 | -43.23634 | 2270 ft | 146 kts | 110° |
| 2026-05-06 23:06 | -22.89986 | -43.22625 | 1989 ft | 144 kts | 110° |
| 2026-05-06 23:06 | -22.90314 | -43.21742 | 1849 ft | 144 kts | 109° |
| 2026-05-06 23:06 | -22.90784 | -43.20770 | 1853 ft | 149 kts | 125° |
| 2026-05-06 23:07 | -22.91519 | -43.19998 | 1767 ft | 145 kts | 143° |
| 2026-05-06 23:07 | -22.92431 | -43.19519 | 1501 ft | 146 kts | 160° |
| 2026-05-06 23:07 | -22.93422 | -43.19348 | 1254 ft | 143 kts | 167° |
| 2026-05-06 23:07 | -22.94254 | -43.18918 | 1019 ft | 129 kts | 131° |
| 2026-05-06 23:08 | -22.94619 | -43.18043 | 920 ft | 130 kts | 90° |
| 2026-05-06 23:08 | -22.94343 | -43.17113 | 675 ft | 136 kts | 55° |
| 2026-05-06 23:08 | -22.93604 | -43.16506 | 453 ft | 135 kts | 24° |
| 2026-05-06 23:08 | -22.92674 | -43.16284 | 298 ft | 140 kts | 8° |
| 2026-05-06 23:09 | -22.91701 | -43.16247 | 64 ft | 140 kts | 358° |
| 2026-05-06 23:09 | -22.90889 | -43.16294 | 21 ft | 58 kts | 356° |
| 2026-05-06 23:09 | -22.90768 | -43.16308 | 24 ft | 12 kts | 351° |
| 2026-05-06 23:09 | -22.90649 | -43.16309 | 23 ft | 12 kts | 355° |
| 2026-05-06 23:10 | -22.90529 | -43.16323 | 21 ft | 17 kts | 336° |
| 2026-05-06 23:10 | -22.90532 | -43.16392 | 21 ft | 16 kts | 184° |
| 2026-05-06 23:10 | -22.90678 | -43.16385 | 25 ft | 25 kts | 177° |
| 2026-05-06 23:10 | -22.90806 | -43.16396 | 22 ft | 7 kts | 228° |
| 2026-05-06 23:11 | -22.90814 | -43.16462 | 20 ft | 3 kts | 264° |
| 2026-05-06 23:11 | -22.90825 | -43.16536 | 21 ft | 16 kts | 239° |
| 2026-05-06 23:11 | -22.90906 | -43.16546 | 19 ft | 10 kts | 177° |
| 2026-05-06 23:11 | -22.91022 | -43.16539 | 19 ft | 21 kts | 176° |
| 2026-05-06 23:12 | -22.91052 | -43.16536 | 22 ft | 6 kts | 168° |
| 2026-05-06 23:12 | -22.91099 | -43.16574 | 19 ft | 8 kts | 256° |
| 2026-05-06 23:12 | -22.91099 | -43.16583 | 19 ft | 0 kts | 267° |